Am Qui, Tennessee
Current Conditions -  °F | °C
As of 6:53 AM on Saturday 22 Nov 2014 (Local Time) from KBNA Reporting Station
Broken Clouds Broken Clouds  
Wind Chill: 44°   Ceiling: 10000
Heat Index: 47°   Visibility: 10mi
Dew Point: 32°   Wind: 6mph
Humidity: 56%   Direction: 150°SSE
Pressure: 30.35"   Gusts: NA
Location:  36.2555°N, 86.6973°W
Report Text: KBNA 221253Z 15005KT 10SM BKN100 08/00 A3035 RMK AO2 SLP278 T00830000
Loading
Personal Weather Stations






























Interactive Weather Map New forecast layout! Learn more

10-Day Weather Forecast

Advertisements
Track Severe Weather on mobile